Time;durP1;ratioP1;P1;durP2;ratioP2;P2;SDS_P1;SDS_P2;PMS_P1;PMS_P2;Temp;Humidity;BMP_temperature;BMP_pressure;BME280_temperature;BME280_humidity;BME280_pressure;Samples;Min_cycle;Max_cycle;Signal;HPM_P1;HPM_P2
2022/06/03 00:00:00;;;;;;;8.03;4.97;;;;;;;-145.69;100.00;71384.47;5075759;28;20199;-86
2022/06/03 00:02:52;;;;;;;10.07;6.07;;;;;;;-145.69;100.00;71370.56;5075686;28;20206;-84
2022/06/03 00:05:45;;;;;;;10.73;6.70;;;;;;;-145.69;100.00;71356.63;5075327;28;20653;-83
2022/06/03 00:08:28;;;;;;;10.17;6.63;;;;;;;-145.69;100.00;71330.75;5075676;28;20207;-84
2022/06/03 00:11:21;;;;;;;9.50;5.70;;;;;;;-145.69;100.00;71334.75;5075567;28;20198;-86
2022/06/03 00:14:03;;;;;;;9.37;6.00;;;;;;;-145.69;100.00;71350.66;5075636;28;20270;-85
2022/06/03 00:16:43;;;;;;;9.50;5.70;;;;;;;-145.69;100.00;71362.59;5075188;28;20222;-85
2022/06/03 00:19:28;;;;;;;12.05;5.53;;;;;;;-145.69;100.00;71388.47;5075619;28;20206;-85
2022/06/03 00:22:30;;;;;;;7.07;5.30;;;;;;;-145.69;100.00;71418.31;5075534;28;20237;-86
2022/06/03 00:25:08;;;;;;;9.73;5.90;;;;;;;-145.69;100.00;71426.28;5075384;28;20225;-87
2022/06/03 00:27:58;;;;;;;9.50;6.13;;;;;;;-145.69;100.00;71416.31;5074647;28;20230;-85
2022/06/03 00:30:38;;;;;;;17.03;6.87;;;;;;;-145.69;100.00;71414.34;5075110;28;20198;-87
2022/06/03 00:33:25;;;;;;;11.50;6.47;;;;;;;-145.69;100.00;71422.28;5075050;28;20199;-85
2022/06/03 00:36:05;;;;;;;12.18;7.05;;;;;;;-145.69;100.00;71422.28;5073758;28;21051;-85
2022/06/03 00:38:43;;;;;;;11.20;5.63;;;;;;;-145.69;100.00;71436.22;5075202;28;20515;-84
2022/06/03 00:41:37;;;;;;;10.53;5.43;;;;;;;-145.69;100.00;71462.09;5074456;28;20190;-83
2022/06/03 00:44:42;;;;;;;9.60;5.47;;;;;;;-145.69;100.00;71491.94;5074840;28;20558;-84
2022/06/03 00:47:30;;;;;;;10.73;5.83;;;;;;;-145.69;100.00;71511.84;5074862;28;20198;-85
2022/06/03 00:50:13;;;;;;;10.37;6.17;;;;;;;-145.69;100.00;71509.84;5074664;28;20210;-85
2022/06/03 00:52:57;;;;;;;9.23;6.93;;;;;;;-145.69;100.00;71474.03;5074441;28;20199;-84
2022/06/03 00:55:42;;;;;;;9.03;6.50;;;;;;;-145.69;100.00;71436.22;5074557;28;20284;-84
2022/06/03 00:58:33;;;;;;;11.40;7.80;;;;;;;-145.69;100.00;71400.41;5074661;28;20210;-84
2022/06/03 01:01:11;;;;;;;16.80;9.10;;;;;;;-145.69;100.00;71378.50;5074838;28;20214;-83
2022/06/03 01:03:59;;;;;;;13.90;7.60;;;;;;;-145.69;100.00;71358.63;5075607;28;20210;-83
2022/06/03 01:06:41;;;;;;;10.60;7.40;;;;;;;-145.69;100.00;71350.66;5054871;28;20218;-83
2022/06/03 01:09:23;;;;;;;11.57;6.80;;;;;;;-145.69;100.00;71348.66;5055308;28;20210;-83
2022/06/03 01:12:08;;;;;;;12.30;6.97;;;;;;;-145.69;100.00;71366.56;5054990;28;20210;-84
2022/06/03 01:14:51;;;;;;;11.60;6.27;;;;;;;-145.69;100.00;71368.56;5056519;28;20199;-85
2022/06/03 01:17:29;;;;;;;11.40;6.27;;;;;;;-145.69;100.00;71392.44;5071165;28;20315;-86
2022/06/03 01:20:18;;;;;;;12.30;6.00;;;;;;;-145.69;100.00;71398.41;5086127;28;20210;-85
2022/06/03 01:23:14;;;;;;;12.57;6.53;;;;;;;-145.69;100.00;71402.41;5083861;28;20611;-86
2022/06/03 01:26:04;;;;;;;11.87;6.77;;;;;;;-145.69;100.00;71402.41;5076544;28;20203;-84
2022/06/03 01:29:12;;;;;;;8.98;6.50;;;;;;;-145.69;100.00;71406.38;5073772;28;20241;-85
2022/06/03 01:32:25;;;;;;;8.77;6.60;;;;;;;-145.69;100.00;71422.28;5074263;28;20206;-85
2022/06/03 01:35:08;;;;;;;12.77;7.22;;;;;;;-145.69;100.00;71406.38;5073649;28;20229;-83
2022/06/03 01:37:46;;;;;;;11.07;6.40;;;;;;;-145.69;100.00;71404.38;5053943;28;20554;-84
2022/06/03 01:40:27;;;;;;;10.43;6.67;;;;;;;-145.69;100.00;71422.28;5069580;28;20213;-83
2022/06/03 01:43:32;;;;;;;10.97;6.90;;;;;;;-145.69;100.00;71414.34;5073772;28;20207;-84
2022/06/03 01:46:28;;;;;;;11.47;6.60;;;;;;;-145.69;100.00;71408.38;5073834;28;20199;-84
2022/06/03 01:49:22;;;;;;;10.50;7.60;;;;;;;-145.69;100.00;71394.44;5073995;28;20210;-85
2022/06/03 01:52:13;;;;;;;10.90;7.83;;;;;;;-145.69;100.00;71386.47;5073369;28;20600;-84
2022/06/03 01:55:21;;;;;;;9.83;7.03;;;;;;;-145.69;100.00;71394.44;5073625;28;20195;-85
2022/06/03 01:58:09;;;;;;;8.90;6.67;;;;;;;-145.69;100.00;71396.44;5073508;28;20248;-87
2022/06/03 02:00:38;;;;;;;9.23;6.88;;;;;;;-145.69;100.00;71398.41;5073796;28;20203;-85
2022/06/03 02:03:42;;;;;;;10.40;6.57;;;;;;;-145.69;100.00;71396.44;5073469;28;20558;-86
2022/06/03 02:07:00;;;;;;;9.50;6.83;;;;;;;-145.69;100.00;71390.47;5073700;28;20210;-86
2022/06/03 02:10:02;;;;;;;16.00;7.83;;;;;;;-145.69;100.00;71378.50;5011523;28;20192;-85
2022/06/03 02:12:56;;;;;;;13.27;8.27;;;;;;;-145.69;100.00;71366.56;5011537;28;20239;-84
2022/06/03 02:15:42;;;;;;;11.73;8.27;;;;;;;-145.69;100.00;71364.59;5071903;28;20202;-88
2022/06/03 02:18:36;;;;;;;10.93;7.60;;;;;;;-145.69;100.00;71368.56;5073713;28;20206;-85
2022/06/03 02:21:27;;;;;;;10.23;6.67;;;;;;;-145.69;100.00;71376.53;5073472;28;20210;-87
2022/06/03 02:24:22;;;;;;;10.53;6.77;;;;;;;-145.69;100.00;71382.50;5073321;28;20221;-85
2022/06/03 02:27:04;;;;;;;12.45;6.38;;;;;;;-145.69;100.00;71400.41;5072719;28;20245;-84
2022/06/03 02:33:05;;;;;;;10.50;6.77;;;;;;;-145.69;100.00;71394.44;5073339;28;20209;-85
2022/06/03 02:35:53;;;;;;;8.83;6.40;;;;;;;-145.69;100.00;71396.44;5072777;28;20720;-84
2022/06/03 02:38:48;;;;;;;12.27;6.80;;;;;;;-145.69;100.00;71396.44;5073160;28;20211;-84
2022/06/03 02:41:45;;;;;;;6.87;5.80;;;;;;;-145.69;100.00;71404.38;5073022;28;20202;-84
2022/06/03 02:44:45;;;;;;;8.83;5.97;;;;;;;-145.69;100.00;71414.34;5072604;28;20207;-85
2022/06/03 02:47:52;;;;;;;10.10;6.50;;;;;;;-145.69;100.00;71402.41;5071016;28;20199;-85
2022/06/03 02:50:37;;;;;;;10.33;5.77;;;;;;;-145.69;100.00;71418.31;5073177;28;20195;-84
2022/06/03 02:53:38;;;;;;;10.40;5.57;;;;;;;-145.69;100.00;71446.16;5072642;28;20676;-85
2022/06/03 02:56:39;;;;;;;8.43;5.53;;;;;;;-145.69;100.00;71458.09;5072938;28;20775;-84
2022/06/03 02:59:31;;;;;;;7.47;5.23;;;;;;;-145.69;100.00;71472.03;5072675;28;20281;-84
2022/06/03 03:02:19;;;;;;;10.07;5.53;;;;;;;-145.69;100.00;71472.03;5072614;28;20228;-84
2022/06/03 03:05:13;;;;;;;7.70;5.67;;;;;;;-145.69;100.00;71478.00;5072731;28;20198;-83
2022/06/03 03:07:53;;;;;;;8.73;5.70;;;;;;;-145.69;100.00;71491.94;5072941;28;20245;-84
2022/06/03 03:10:47;;;;;;;9.00;5.40;;;;;;;-145.69;100.00;71489.94;5072622;28;20221;-84
2022/06/03 03:13:55;;;;;;;8.73;6.00;;;;;;;-145.69;100.00;71489.94;5072655;28;20203;-85
2022/06/03 03:16:47;;;;;;;8.13;5.77;;;;;;;-145.69;100.00;71487.97;5072379;28;20301;-84
2022/06/03 03:19:38;;;;;;;11.40;5.90;;;;;;;-145.69;100.00;71489.94;5072674;28;20206;-85
2022/06/03 03:22:35;;;;;;;8.33;6.20;;;;;;;-145.69;100.00;71507.84;5072614;28;20199;-85
2022/06/03 03:25:29;;;;;;;8.87;6.17;;;;;;;-145.69;100.00;71521.78;5072811;28;20710;-86
2022/06/03 03:28:14;;;;;;;8.03;6.20;;;;;;;-145.69;100.00;71529.75;5075725;28;20230;-85
2022/06/03 03:30:54;;;;;;;13.07;6.30;;;;;;;-145.69;100.00;71517.81;5076224;28;20205;-85
2022/06/03 03:33:37;;;;;;;10.30;6.53;;;;;;;-145.69;100.00;71525.78;5076260;28;20645;-85
2022/06/03 03:36:43;;;;;;;8.43;6.10;;;;;;;-145.69;100.00;71529.75;5074025;28;20222;-85
2022/06/03 03:39:37;;;;;;;15.52;8.90;;;;;;;-145.69;100.00;71507.84;5040148;28;20890;-84
2022/06/03 03:42:27;;;;;;;14.40;8.27;;;;;;;-145.69;100.00;71495.91;5076060;28;20225;-85
2022/06/03 03:45:30;;;;;;;10.30;6.93;;;;;;;-145.69;100.00;71505.88;5076081;28;20202;-85
2022/06/03 03:48:36;;;;;;;12.30;8.10;;;;;;;-145.69;100.00;71483.97;5074901;28;20198;-86
2022/06/03 03:51:15;;;;;;;14.83;7.53;;;;;;;-145.69;100.00;71495.91;5076075;28;20293;-86
2022/06/03 03:54:36;;;;;;;13.20;9.10;;;;;;;-145.69;100.00;71458.09;5056095;28;20210;-85
2022/06/03 03:57:34;;;;;;;16.33;8.37;;;;;;;-145.69;100.00;71444.19;4955241;28;20234;-85
2022/06/03 04:00:43;;;;;;;16.00;9.07;;;;;;;-145.69;100.00;71438.22;5013242;28;20208;-84
2022/06/03 04:03:35;;;;;;;13.63;7.77;;;;;;;-145.69;100.00;71438.22;5048554;28;20290;-86
2022/06/03 04:06:31;;;;;;;9.70;6.80;;;;;;;-145.69;100.00;71444.19;5055356;28;20207;-85
2022/06/03 04:09:28;;;;;;;9.83;6.40;;;;;;;-145.69;100.00;71458.09;5055641;28;20203;-86
2022/06/03 04:12:05;;;;;;;9.27;6.83;;;;;;;-145.69;100.00;71462.09;5069600;28;20206;-86
2022/06/03 04:15:11;;;;;;;11.23;7.33;;;;;;;-145.69;100.00;71442.19;5075499;28;20195;-85
2022/06/03 04:18:23;;;;;;;10.33;6.77;;;;;;;-145.69;100.00;71426.28;5048668;28;20343;-86
2022/06/03 04:21:37;;;;;;;14.67;7.87;;;;;;;-145.69;100.00;71398.41;5075347;28;20311;-85
2022/06/03 04:24:40;;;;;;;11.47;7.30;;;;;;;-145.69;100.00;71392.44;5074967;28;20211;-85
2022/06/03 04:27:35;;;;;;;11.33;6.37;;;;;;;-145.69;100.00;71408.38;5075191;28;20236;-85
2022/06/03 04:30:43;;;;;;;9.90;6.17;;;;;;;-145.69;100.00;71402.41;5075181;28;20285;-86
2022/06/03 04:33:55;;;;;;;7.10;5.60;;;;;;;-145.69;100.00;71412.34;5075243;28;20206;-85
2022/06/03 04:37:12;;;;;;;10.27;6.53;;;;;;;-145.69;100.00;71398.41;5032645;28;20228;-85
2022/06/03 04:40:14;;;;;;;9.77;5.63;;;;;;;-145.69;100.00;71398.41;5075096;28;20207;-87
2022/06/03 04:43:26;;;;;;;7.77;5.70;;;;;;;-145.69;100.00;71386.47;5075034;28;20194;-87
2022/06/03 04:46:28;;;;;;;10.63;6.18;;;;;;;-145.69;100.00;71372.53;5075023;28;20203;-86
2022/06/03 04:49:40;;;;;;;8.60;5.77;;;;;;;-145.69;100.00;71362.59;5075033;28;20202;-86
2022/06/03 04:53:00;;;;;;;7.83;5.97;;;;;;;-145.69;100.00;71340.72;5074315;28;20191;-85
2022/06/03 04:56:08;;;;;;;8.45;5.13;;;;;;;-145.69;100.00;71334.75;5074712;28;20203;-86
2022/06/03 04:59:23;;;;;;;12.25;4.82;;;;;;;-145.69;100.00;71314.84;5068174;28;20556;-86
2022/06/03 05:02:26;;;;;;;6.55;4.32;;;;;;;-145.69;100.00;71304.91;5074871;28;20213;-86
2022/06/03 05:05:39;;;;;;;5.30;4.13;;;;;;;-145.69;100.00;71298.94;5074364;28;20217;-87
2022/06/03 05:08:55;;;;;;;6.35;4.32;;;;;;;-145.69;100.00;71283.00;5074468;28;20669;-86
2022/06/03 05:12:11;;;;;;;5.88;4.22;;;;;;;-145.69;100.00;71271.06;5074304;28;20205;-85
2022/06/03 05:15:19;;;;;;;8.68;4.13;;;;;;;-145.69;100.00;71261.13;5074296;28;20203;-84
2022/06/03 05:18:17;;;;;;;5.53;4.03;;;;;;;-145.69;100.00;71247.19;5074283;28;20321;-84
2022/06/03 05:21:14;;;;;;;7.28;3.97;;;;;;;-145.69;100.00;71231.28;5074259;28;20195;-83
2022/06/03 05:24:21;;;;;;;6.18;4.13;;;;;;;-145.69;100.00;71203.41;5039840;28;20445;-85
2022/06/03 05:27:23;;;;;;;6.20;4.30;;;;;;;-145.69;100.00;71161.63;5072383;28;20562;-85
2022/06/03 05:30:08;;;;;;;4.20;3.60;;;;;;;-145.69;100.00;71125.81;5053472;28;20227;-84
2022/06/03 05:33:30;;;;;;;5.00;3.22;;;;;;;-145.69;100.00;71090.00;5053913;28;20226;-84
2022/06/03 05:36:28;;;;;;;4.35;2.92;;;;;;;-145.69;100.00;71052.19;4974973;28;20272;-85
2022/06/03 05:39:40;;;;;;;5.35;3.25;;;;;;;-145.69;100.00;71004.44;5054168;28;20578;-84
2022/06/03 05:42:40;;;;;;;6.68;2.88;;;;;;;-145.69;100.00;70895.00;5073490;28;20202;-85
2022/06/03 05:45:37;;;;;;;2.85;2.53;;;;;;;-145.69;100.00;70855.22;5073678;28;20206;-84
2022/06/03 05:48:12;;;;;;;5.28;2.70;;;;;;;-145.69;100.00;70741.81;5070768;28;20205;-85
2022/06/03 05:50:47;;;;;;;3.35;2.42;;;;;;;-145.69;98.19;70702.03;5073087;28;20206;-84
2022/06/03 05:53:38;;;;;;;4.70;2.58;;;;;;;-145.69;92.49;70578.69;5053420;28;20203;-85
2022/06/03 05:56:38;;;;;;;4.47;2.28;;;;;;;-145.69;87.19;70534.91;5053299;28;20207;-85
2022/06/03 05:59:13;;;;;;;3.13;2.10;;;;;;;-145.69;85.58;70467.28;5053242;28;20215;-84
2022/06/03 06:01:52;;;;;;;3.72;2.20;;;;;;;-145.69;78.21;70387.69;5053768;28;20207;-84
2022/06/03 06:04:27;;;;;;;2.83;1.73;;;;;;;-145.69;77.65;70316.06;5067741;28;20194;-85
2022/06/03 06:07:21;;;;;;;3.80;1.80;;;;;;;-145.69;75.85;70234.50;5073175;28;20202;-85
2022/06/03 06:09:57;;;;;;;2.67;1.73;;;;;;;-145.69;73.62;70282.25;5073384;28;20187;-85
2022/06/03 06:13:05;;;;;;;4.03;1.75;;;;;;;-145.69;72.78;70246.44;5073293;28;20202;-86
2022/06/03 06:15:51;;;;;;;2.10;1.45;;;;;;;-145.69;68.90;70206.66;5011056;28;20199;-86
2022/06/03 06:18:26;;;;;;;4.60;1.50;;;;;;;-145.69;74.61;70288.22;5071712;28;20233;-85
2022/06/03 06:21:06;;;;;;;2.53;1.35;;;;;;;-145.69;71.65;70164.88;5073284;28;20560;-85
2022/06/03 06:23:42;;;;;;;3.15;1.50;;;;;;;-145.69;69.31;70180.81;5073215;28;20205;-85
2022/06/03 06:26:45;;;;;;;4.57;1.80;;;;;;;-145.69;68.15;70176.81;5073139;28;20199;-85
2022/06/03 06:29:45;;;;;;;2.65;1.48;;;;;;;-145.69;73.39;70270.31;5050305;28;20207;-83
2022/06/03 06:32:31;;;;;;;4.25;1.55;;;;;;;-145.69;73.80;70258.38;5053112;28;20207;-85
2022/06/03 06:35:26;;;;;;;2.75;1.40;;;;;;;-145.69;76.87;70339.94;5052952;28;20210;-85
2022/06/03 06:38:03;;;;;;;2.42;1.50;;;;;;;-145.69;70.29;70234.50;5050295;28;20227;-87
2022/06/03 06:40:44;;;;;;;2.53;1.98;;;;;;;-145.69;71.74;70355.88;5069717;28;20198;-88
2022/06/03 06:43:29;;;;;;;2.33;1.33;;;;;;;-145.69;74.35;70345.91;5073332;28;20562;-86
2022/06/03 06:46:05;;;;;;;3.20;1.77;;;;;;;-145.69;76.52;70399.63;5073137;28;20203;-86
2022/06/03 06:48:49;;;;;;;3.88;1.70;;;;;;;-145.69;75.36;70351.88;5072907;28;20232;-83
2022/06/03 06:51:32;;;;;;;3.35;1.73;;;;;;;-145.69;73.09;70316.06;5072665;28;20206;-85
2022/06/03 06:54:06;;;;;;;5.00;2.17;;;;;;;-145.69;76.89;70415.53;5073075;28;20207;-83
2022/06/03 06:56:42;;;;;;;4.90;2.00;;;;;;;-145.69;74.90;70401.63;5072628;28;20791;-85
2022/06/03 06:59:16;;;;;;;3.25;1.58;;;;;;;-145.69;73.23;70288.22;5072625;28;20910;-83
2022/06/03 07:01:49;;;;;;;2.42;1.80;;;;;;;-145.69;73.26;70308.13;5075983;28;20206;-83
2022/06/03 07:04:22;;;;;;;2.20;1.80;;;;;;;-145.69;75.00;70294.19;5076516;28;20197;-82
2022/06/03 07:06:55;;;;;;;4.18;2.00;;;;;;;-145.69;77.56;70304.13;5076788;28;20230;-85
2022/06/03 07:09:44;;;;;;;3.13;1.90;;;;;;;-145.69;77.57;70365.81;5077017;28;20205;-84
2022/06/03 07:12:13;;;;;;;2.97;2.20;;;;;;;-145.69;74.80;70365.81;5076418;28;20672;-84
2022/06/03 07:14:54;;;;;;;5.20;2.00;;;;;;;-145.69;79.67;70335.97;5076375;28;20553;-84
2022/06/03 07:20:23;;;;;;;2.80;2.00;;;;;;;-145.69;73.75;70284.25;5076534;28;20205;-84
2022/06/03 07:22:55;;;;;;;3.78;2.35;;;;;;;-145.69;70.95;70216.63;5076353;28;20725;-85
2022/06/03 07:25:27;;;;;;;2.50;2.10;;;;;;;-145.69;71.93;70180.81;5076643;28;20206;-85
2022/06/03 07:27:59;;;;;;;4.75;2.15;;;;;;;-145.69;68.92;70228.53;5063020;28;20238;-85
2022/06/03 07:30:34;;;;;;;3.53;2.33;;;;;;;-145.69;70.03;70208.66;5056357;28;20207;-85
2022/06/03 07:33:08;;;;;;;4.97;2.00;;;;;;;-145.69;77.40;70280.28;5056074;28;20206;-86
2022/06/03 07:35:45;;;;;;;3.00;2.13;;;;;;;-145.69;75.08;70322.03;5056297;28;20210;-85
2022/06/03 07:38:26;;;;;;;3.47;2.15;;;;;;;-145.69;75.94;70345.91;5057377;28;20721;-85
2022/06/03 07:40:59;;;;;;;3.38;2.58;;;;;;;-145.69;75.53;70260.38;5076017;28;20690;-85
2022/06/03 07:43:32;;;;;;;3.38;2.63;;;;;;;-145.69;75.23;70262.38;5076308;28;20206;-86
2022/06/03 07:46:04;;;;;;;3.17;2.38;;;;;;;-145.69;74.71;70248.44;5076088;28;20199;-86
2022/06/03 07:48:34;;;;;;;159.55;32.95;;;;;;;-145.69;73.38;70238.50;5076231;28;20199;-86
2022/06/03 07:51:09;;;;;;;6.70;3.05;;;;;;;-145.69;68.43;70212.63;5076158;28;20202;-84
2022/06/03 07:53:45;;;;;;;9.85;3.13;;;;;;;-145.69;70.18;70248.44;5075954;28;20293;-83
2022/06/03 07:56:12;;;;;;;3.92;2.63;;;;;;;-145.69;66.88;70190.75;5075992;28;20198;-84
2022/06/03 07:58:39;;;;;;;4.28;2.17;;;;;;;-145.69;66.47;70121.13;5075443;28;20715;-81
2022/06/03 08:01:20;;;;;;;3.47;2.13;;;;;;;-145.69;63.79;70123.13;5075637;28;20210;-80
2022/06/03 08:03:47;;;;;;;43.05;11.20;;;;;;;-145.69;67.46;70129.09;5075202;28;20228;-83
2022/06/03 08:06:14;;;;;;;49.15;15.05;;;;;;;-145.69;70.55;70083.34;5063551;28;20202;-81
2022/06/03 08:11:31;;;;;;;3.15;2.42;;;;;;;-145.69;69.04;70101.25;5074726;28;20202;-85
2022/06/03 08:14:00;;;;;;;2.70;2.30;;;;;;;-145.69;68.02;70113.16;5074826;28;20205;-81
2022/06/03 08:16:35;;;;;;;3.47;2.33;;;;;;;-145.69;65.56;70117.16;5075070;28;20214;-82
2022/06/03 08:19:07;;;;;;;4.05;2.42;;;;;;;-145.69;64.83;70081.34;5075147;28;20834;-82
2022/06/03 08:21:41;;;;;;;3.40;2.50;;;;;;;-145.69;66.03;70061.44;5075215;28;20732;-81
2022/06/03 08:24:10;;;;;;;5.72;2.40;;;;;;;-145.69;65.56;70051.50;5075084;28;20199;-83
2022/06/03 08:26:39;;;;;;;3.95;2.40;;;;;;;-145.69;61.12;70053.50;5076246;28;20550;-85
2022/06/03 08:29:12;;;;;;;3.42;2.25;;;;;;;-145.69;64.99;70065.44;5075493;28;20580;-82
2022/06/03 08:31:44;;;;;;;4.93;2.58;;;;;;;-145.69;70.97;70085.31;5075324;28;20206;-82
2022/06/03 08:34:20;;;;;;;5.72;2.63;;;;;;;-145.69;72.72;70131.06;5075801;28;20206;-80
2022/06/03 08:36:47;;;;;;;5.47;3.00;;;;;;;-145.69;78.44;70248.44;5074610;28;20187;-79
2022/06/03 08:39:18;;;;;;;9.98;3.10;;;;;;;-145.69;77.94;70208.66;5074906;28;20565;-80
2022/06/03 08:42:07;;;;;;;5.10;3.28;;;;;;;-145.69;77.79;70214.63;5074654;28;20209;-80
2022/06/03 08:44:46;;;;;;;4.07;2.60;;;;;;;-145.69;74.60;70160.91;5057890;28;20199;-80
2022/06/03 08:47:22;;;;;;;6.00;2.85;;;;;;;-145.69;72.04;70057.47;5074813;28;20290;-79
2022/06/03 08:49:59;;;;;;;6.65;2.67;;;;;;;-145.69;68.91;70069.41;5074520;28;20198;-80
2022/06/03 08:52:35;;;;;;;4.32;2.50;;;;;;;-145.69;68.38;69975.91;5074896;28;20199;-80
2022/06/03 08:55:09;;;;;;;3.42;2.53;;;;;;;-145.69;62.72;69924.19;5074077;28;20452;-79
2022/06/03 08:57:40;;;;;;;3.85;2.58;;;;;;;-145.69;67.60;70027.63;5074558;28;20254;-80
2022/06/03 09:00:10;;;;;;;5.57;2.40;;;;;;;-145.69;65.21;70069.41;5074384;28;20203;-80
2022/06/03 09:02:45;;;;;;;3.88;2.72;;;;;;;-145.69;66.65;70045.53;5074048;28;20209;-79
2022/06/03 09:05:22;;;;;;;7.32;2.97;;;;;;;-145.69;68.43;70053.50;5074562;28;20628;-81
2022/06/03 09:07:55;;;;;;;4.30;2.95;;;;;;;-145.69;64.57;70045.53;5074366;28;20293;-80
2022/06/03 09:10:28;;;;;;;3.92;2.63;;;;;;;-145.69;63.87;70037.59;5074305;28;20562;-78
2022/06/03 09:13:03;;;;;;;5.13;2.55;;;;;;;-145.69;66.78;70055.47;5073820;28;20260;-81
2022/06/03 09:15:44;;;;;;;4.90;2.28;;;;;;;-145.69;63.37;70045.53;5073988;28;20279;-80
2022/06/03 09:18:19;;;;;;;3.80;2.33;;;;;;;-145.69;65.59;70013.72;5070085;28;20230;-78
2022/06/03 09:20:52;;;;;;;3.00;2.13;;;;;;;-145.69;65.58;69963.97;5073923;28;20290;-79
2022/06/03 09:23:22;;;;;;;4.35;1.67;;;;;;;-145.69;62.07;69884.41;5073818;28;20209;-81
2022/06/03 09:25:54;;;;;;;3.58;1.83;;;;;;;-145.69;55.97;69862.53;5073601;28;20203;-82
2022/06/03 09:28:26;;;;;;;5.05;1.92;;;;;;;-145.69;58.13;69858.56;5073627;28;20238;-83
2022/06/03 09:30:57;;;;;;;4.63;1.85;;;;;;;-145.69;56.38;69862.53;5073646;28;20203;-83
2022/06/03 09:33:29;;;;;;;5.90;2.22;;;;;;;-145.69;59.30;69860.53;5073953;28;20198;-81
2022/06/03 09:35:59;;;;;;;3.35;1.73;;;;;;;-145.69;59.26;69908.28;5073132;28;20302;-82
2022/06/03 09:38:30;;;;;;;3.10;1.90;;;;;;;-145.69;58.99;69882.44;5072823;28;20309;-81
2022/06/03 09:41:01;;;;;;;4.38;2.13;;;;;;;-145.69;55.21;69870.50;5073585;28;20202;-81
2022/06/03 09:43:32;;;;;;;3.67;1.73;;;;;;;-145.69;56.58;69868.50;5073679;28;20564;-82
2022/06/03 09:46:02;;;;;;;3.67;1.60;;;;;;;-145.69;60.53;69826.72;5072905;28;20553;-81
2022/06/03 09:48:40;;;;;;;3.35;1.48;;;;;;;-145.69;56.30;69810.81;5073319;28;20206;-80
2022/06/03 09:51:10;;;;;;;5.10;1.50;;;;;;;-145.69;51.30;69802.88;5073376;28;20203;-79
2022/06/03 09:53:42;;;;;;;2.22;1.40;;;;;;;-145.69;48.82;69802.88;5073211;28;20202;-83
2022/06/03 09:56:29;;;;;;;2.47;1.30;;;;;;;-145.69;48.36;69802.88;5073329;28;20238;-83
2022/06/03 09:59:01;;;;;;;3.00;1.30;;;;;;;-145.69;44.97;69792.91;5073332;28;20230;-83
2022/06/03 10:01:28;;;;;;;2.90;1.20;;;;;;;-145.69;47.68;69727.28;5072929;28;20205;-82
2022/06/03 10:04:08;;;;;;;2.42;1.25;;;;;;;-145.69;43.23;69717.34;5072551;28;20662;-82
2022/06/03 10:06:50;;;;;;;5.35;1.10;;;;;;;-145.69;40.93;69683.53;5073152;28;20676;-84
2022/06/03 10:17:41;;;;;;;1.92;1.20;;;;;;;-145.69;43.04;69607.94;5072809;28;20197;-84
2022/06/03 10:20:10;;;;;;;4.45;2.30;;;;;;;-145.69;52.13;69655.69;5073154;28;20206;-84
2022/06/03 10:22:37;;;;;;;2.95;2.30;;;;;;;-145.69;54.51;69657.66;5073470;28;20277;-83
2022/06/03 10:25:04;;;;;;;3.05;1.92;;;;;;;-145.69;54.94;69691.47;5072989;28;20672;-82
2022/06/03 10:27:30;;;;;;;4.40;2.05;;;;;;;-145.69;52.31;69665.63;5072872;28;20283;-82
2022/06/03 10:29:59;;;;;;;4.03;1.60;;;;;;;-145.69;48.96;69703.41;5072810;28;20203;-82
2022/06/03 10:32:26;;;;;;;4.07;1.80;;;;;;;-145.69;48.17;69647.72;5072632;28;20198;-83
2022/06/03 10:34:57;;;;;;;2.58;1.60;;;;;;;-145.69;46.34;69653.69;5072675;28;20209;-82
2022/06/03 10:37:26;;;;;;;3.00;2.15;;;;;;;-145.69;53.05;69635.78;5072997;28;20206;-82
2022/06/03 10:39:56;;;;;;;3.85;2.50;;;;;;;-145.69;53.23;69775.00;5072992;28;20226;-83
2022/06/03 10:42:29;;;;;;;2.88;1.95;;;;;;;-145.69;54.50;69727.28;5072940;28;20206;-81
2022/06/03 10:44:59;;;;;;;4.50;2.15;;;;;;;-145.69;53.96;69703.41;5072932;28;20199;-82
2022/06/03 10:47:34;;;;;;;4.18;2.20;;;;;;;-145.69;54.53;69790.94;5073826;28;20206;-82
2022/06/03 10:50:03;;;;;;;3.53;2.40;;;;;;;-145.69;55.11;69798.88;5072780;28;20656;-82
2022/06/03 11:01:10;;;;;;;6.30;2.20;;;;;;;-145.69;55.11;69942.09;5073295;28;20248;-82
2022/06/03 11:03:42;;;;;;;5.28;2.58;;;;;;;-145.69;57.44;69985.88;5072927;28;20207;-82
2022/06/03 11:06:11;;;;;;;6.70;2.25;;;;;;;-145.69;58.24;69938.13;5072795;28;20199;-81
2022/06/03 11:08:51;;;;;;;5.77;2.50;;;;;;;-145.69;64.86;69973.94;5072610;28;20446;-81
2022/06/03 11:11:34;;;;;;;4.53;2.58;;;;;;;-145.69;66.22;69985.88;5072995;28;20653;-82
2022/06/03 11:14:23;;;;;;;3.03;2.25;;;;;;;-145.69;67.73;69958.00;5071403;28;20245;-82
2022/06/03 11:16:50;;;;;;;4.80;2.75;;;;;;;-145.69;67.03;69934.16;5073375;28;20565;-82
2022/06/03 11:19:19;;;;;;;10.40;2.83;;;;;;;-145.69;63.91;69894.38;5072561;28;20236;-81
2022/06/03 11:21:45;;;;;;;4.63;2.90;;;;;;;-145.69;60.88;69852.59;5068651;28;20642;-81
2022/06/03 11:24:14;;;;;;;8.00;3.05;;;;;;;-145.69;60.84;69878.44;5072260;28;20681;-81
2022/06/03 11:26:45;;;;;;;4.32;3.00;;;;;;;-145.69;61.79;69934.16;5072460;28;20195;-83
2022/06/03 11:29:17;;;;;;;7.85;3.25;;;;;;;-145.69;66.90;70009.72;5072780;28;20653;-82
2022/06/03 11:31:46;;;;;;;4.70;3.00;;;;;;;-145.69;63.89;69981.88;5072541;28;20209;-82
2022/06/03 11:34:19;;;;;;;8.70;3.03;;;;;;;-145.69;61.77;69932.16;5072393;28;20201;-83
2022/06/03 11:36:54;;;;;;;6.85;3.17;;;;;;;-145.69;62.19;69918.22;5072344;28;20203;-81
2022/06/03 11:39:28;;;;;;;7.97;2.80;;;;;;;-145.69;66.68;69958.00;5072852;28;20226;-85
2022/06/03 11:41:58;;;;;;;4.33;3.20;;;;;;;-145.69;64.74;69962.00;5072964;28;20442;-85
2022/06/03 11:44:37;;;;;;;6.57;3.17;;;;;;;-145.69;63.31;69962.00;5073252;28;20449;-82
2022/06/03 11:47:10;;;;;;;11.90;3.20;;;;;;;-145.69;63.06;69973.94;5072099;28;20202;-83
2022/06/03 11:49:37;;;;;;;8.10;2.95;;;;;;;-145.69;63.76;69940.13;5075917;28;20217;-80
2022/06/03 11:52:04;;;;;;;17.08;4.88;;;;;;;-145.69;63.15;69940.13;5075567;28;20195;-81
2022/06/03 11:54:33;;;;;;;5.45;3.10;;;;;;;-145.69;67.40;69985.88;5075742;28;20281;-83
2022/06/03 11:57:02;;;;;;;6.90;2.97;;;;;;;-145.69;64.00;69981.88;5075588;28;20231;-80
2022/06/03 11:59:37;;;;;;;4.90;3.42;;;;;;;-145.69;65.06;70015.69;5072898;28;20674;-80
2022/06/03 12:02:11;;;;;;;7.38;2.70;;;;;;;-145.69;65.78;70003.75;5056476;28;20256;-81
2022/06/03 12:04:47;;;;;;;10.45;2.90;;;;;;;-145.69;66.72;70025.66;5072221;28;20218;-81
2022/06/03 12:07:29;;;;;;;6.32;2.95;;;;;;;-145.69;66.75;70043.56;5075601;28;20226;-81
2022/06/03 12:10:05;;;;;;;5.32;3.17;;;;;;;-145.69;67.68;70077.38;5075281;28;20206;-79
2022/06/03 12:15:45;;;;;;;4.90;2.95;;;;;;;-145.69;70.24;70162.91;5075243;28;20089;-79
2022/06/03 12:18:54;;;;;;;9.15;3.13;;;;;;;-145.69;73.76;70204.69;5075042;28;20214;-81
2022/06/03 12:21:56;;;;;;;8.55;3.38;;;;;;;-145.69;77.37;70242.47;5075268;28;20206;-80
2022/06/03 12:24:40;;;;;;;4.90;3.20;;;;;;;-145.69;79.29;70268.34;5074745;28;20202;-81
2022/06/03 12:27:15;;;;;;;11.10;3.35;;;;;;;-145.69;84.32;70296.19;5074624;28;20764;-81
2022/06/03 12:29:49;;;;;;;6.10;3.97;;;;;;;-145.69;87.86;70326.03;5075229;28;20198;-80
2022/06/03 12:32:22;;;;;;;6.20;3.50;;;;;;;-145.69;91.86;70343.94;5074957;28;20206;-81
2022/06/03 12:34:48;;;;;;;9.40;3.90;;;;;;;-145.69;96.68;70367.81;5074748;28;20206;-82
2022/06/03 12:37:25;;;;;;;7.80;4.13;;;;;;;-145.69;100.00;70369.78;5074857;28;20210;-82
2022/06/03 12:40:00;;;;;;;6.75;4.25;;;;;;;-145.69;100.00;70355.88;5074672;28;20229;-82
2022/06/03 12:42:40;;;;;;;6.20;4.47;;;;;;;-145.69;100.00;70337.97;5074734;28;20657;-82
2022/06/03 12:45:27;;;;;;;9.60;4.88;;;;;;;-145.69;100.00;70318.06;5074664;28;20213;-82
2022/06/03 12:47:55;;;;;;;8.52;4.30;;;;;;;-145.69;100.00;70302.16;5074744;28;20198;-82
2022/06/03 12:50:30;;;;;;;6.65;4.13;;;;;;;-145.69;100.00;70276.28;5074608;28;20202;-82
2022/06/03 12:53:02;;;;;;;6.22;4.07;;;;;;;-145.69;100.00;70254.41;5074651;28;20201;-83
2022/06/03 12:55:31;;;;;;;7.20;4.75;;;;;;;-145.69;100.00;70264.34;5074615;28;20203;-83